| time (UTC) | temp C | wind direction | speed KPH | gust KPH | rain 1hr cm | rain 24hr cm | rain mn cm | humidity % | barometer mb |
| 20260506215350 | 21 | 263 | 6.4 | 19.3 | 0.00 | 0.00 | 0.00 | 75 | 1010.1 |
| 20260506214850 | 22 | 184 | 6.4 | 19.3 | 0.00 | 0.00 | 0.00 | 76 | 1010.1 |
| 20260506214350 | 22 | 276 | 4.8 | 16.1 | 0.00 | 0.00 | 0.00 | 75 | 1010.2 |
| 20260506213850 | 22 | 244 | 6.4 | 16.1 | 0.00 | 0.00 | 0.00 | 76 | 1010.1 |
| 20260506213350 | 22 | 306 | 6.4 | 14.5 | 0.00 | 0.00 | 0.00 | 76 | 1010.2 |
| 20260506212851 | 22 | 326 | 6.4 | 16.1 | 0.00 | 0.00 | 0.00 | 76 | 1010.2 |
| 20260506212350 | 22 | 240 | 6.4 | 16.1 | 0.00 | 0.00 | 0.00 | 77 | 1010.4 |
| 20260506211850 | 22 | 215 | 4.8 | 14.5 | 0.00 | 0.00 | 0.00 | 77 | 1010.2 |
| 20260506211350 | 23 | 237 | 4.8 | 11.3 | 0.00 | 0.00 | 0.00 | 78 | 1010.3 |
| 20260506210848 | 23 | 240 | 6.4 | 14.5 | 0.00 | 0.00 | 0.00 | 78 | 1010.2 |
| 20260506210347 | 23 | 143 | 6.4 | 14.5 | 0.00 | 0.00 | 0.00 | 78 | 1010.1 |
| 20260506205847 | 24 | 253 | 6.4 | 16.1 | 0.00 | 0.00 | 0.00 | 78 | 1009.9 |
| 20260506205345 | 25 | 267 | 6.4 | 16.1 | 0.00 | 0.00 | 0.00 | 78 | 1009.5 |
| 20260506204344 | 26 | 230 | 4.8 | 12.9 | 0.00 | 0.00 | 0.00 | 76 | 1009.2 |
| 20260506203844 | 27 | 267 | 3.2 | 9.7 | 0.00 | 0.00 | 0.00 | 75 | 1009.0 |
| 20260506202843 | 27 | 2 | 3.2 | 8.0 | 0.00 | 0.00 | 0.00 | 74 | 1008.8 |
| 20260506202341 | 26 | 295 | 3.2 | 9.7 | 0.00 | 0.00 | 0.00 | 74 | 1009.0 |
| 20260506201841 | 26 | 44 | 3.2 | 9.7 | 0.00 | 0.00 | 0.00 | 75 | 1009.1 |
| 20260506201341 | 26 | 115 | 4.8 | 11.3 | 0.00 | 0.00 | 0.00 | 75 | 1009.1 |
| 20260506200842 | 26 | 0 | 4.8 | 11.3 | 0.00 | 0.00 | 0.00 | 75 | 1009.0 |
| 20260506200341 | 26 | 275 | 4.8 | 9.7 | 0.00 | 0.00 | 0.00 | 75 | 1009.0 |
| 20260506195842 | 26 | 228 | 3.2 | 9.7 | 0.00 | 0.00 | 0.00 | 74 | 1009.0 |
| 20260506195342 | 26 | 257 | 3.2 | 8.0 | 0.00 | 0.00 | 0.00 | 73 | 1009.0 |
| 20260506194842 | 26 | 43 | 3.2 | 8.0 | 0.00 | 0.00 | 0.00 | 75 | 1009.1 |
| 20260506194342 | 26 | 215 | 3.2 | 9.7 | 0.00 | 0.00 | 0.00 | 75 | 1009.1 |
| 20260506193843 | 26 | 80 | 3.2 | 11.3 | 0.00 | 0.00 | 0.00 | 76 | 1009.1 |
| 20260506193339 | 26 | 221 | 3.2 | 11.3 | 0.00 | 0.00 | 0.00 | 76 | 1009.1 |
| 20260506192840 | 26 | 171 | 3.2 | 8.0 | 0.00 | 0.00 | 0.00 | 77 | 1009.2 |
| 20260506192336 | 25 | 199 | 4.8 | 9.7 | 0.00 | 0.00 | 0.00 | 77 | 1009.3 |
| 20260506191835 | 25 | 260 | 4.8 | 9.7 | 0.00 | 0.00 | 0.00 | 78 | 1009.5 |
| 20260506191337 | 26 | 47 | 3.2 | 9.7 | 0.00 | 0.00 | 0.00 | 76 | 1009.6 |
| 20260506190836 | 25 | 253 | 3.2 | 8.0 | 0.00 | 0.00 | 0.00 | 76 | 1009.4 |
| 20260506190336 | 25 | 96 | 3.2 | 9.7 | 0.00 | 0.00 | 0.00 | 77 | 1009.5 |
| 20260506185836 | 25 | 114 | 3.2 | 11.3 | 0.00 | 0.00 | 0.00 | 78 | 1009.6 |
| 20260506185337 | 25 | 23 | 3.2 | 11.3 | 0.00 | 0.00 | 0.00 | 77 | 1009.7 |
| 20260506184836 | 25 | 34 | 3.2 | 8.0 | 0.00 | 0.00 | 0.00 | 77 | 1009.6 |
| 20260506184337 | 24 | 53 | 3.2 | 9.7 | 0.00 | 0.00 | 0.00 | 78 | 1009.6 |
| 20260506183837 | 24 | 28 | 3.2 | 9.7 | 0.00 | 0.00 | 0.00 | 79 | 1009.8 |
| 20260506183338 | 23 | 144 | 3.2 | 9.7 | 0.00 | 0.00 | 0.00 | 80 | 1009.8 |
| 20260506182837 | 23 | 0 | 4.8 | 9.7 | 0.00 | 0.00 | 0.00 | 81 | 1009.8 |
| 20260506182336 | 23 | 112 | 4.8 | 9.7 | 0.00 | 0.00 | 0.00 | 82 | 1009.9 |
| 20260506181837 | 22 | 67 | 3.2 | 9.7 | 0.00 | 0.00 | 0.00 | 81 | 1009.9 |
| 20260506181334 | 22 | 87 | 3.2 | 9.7 | 0.00 | 0.00 | 0.00 | 82 | 1010.0 |
| 20260506180835 | 22 | 143 | 4.8 | 12.9 | 0.00 | 0.00 | 0.00 | 83 | 1010.2 |
| 20260506180334 | 22 | 342 | 6.4 | 16.1 | 0.00 | 0.00 | 0.00 | 82 | 1010.4 |
| 20260506174832 | 22 | 34 | 4.8 | 12.9 | 0.00 | 0.00 | 0.00 | 82 | 1010.7 |
| 20260506173831 | 21 | 136 | 3.2 | 11.3 | 0.00 | 0.00 | 0.00 | 83 | 1011.0 |
| 20260506173332 | 22 | 215 | 4.8 | 11.3 | 0.00 | 0.00 | 0.00 | 83 | 1011.1 |
| 20260506172832 | 22 | 149 | 4.8 | 11.3 | 0.00 | 0.00 | 0.00 | 83 | 1011.0 |
| 20260506172331 | 22 | 260 | 4.8 | 11.3 | 0.00 | 0.00 | 0.00 | 83 | 1010.9 |
| 20260506171831 | 22 | 234 | 4.8 | 11.3 | 0.00 | 0.00 | 0.00 | 84 | 1011.2 |
| 20260506171332 | 22 | 254 | 4.8 | 11.3 | 0.00 | 0.00 | 0.00 | 85 | 1011.1 |
| 20260506170832 | 22 | 144 | 4.8 | 9.7 | 0.00 | 0.00 | 0.00 | 84 | 1011.2 |
| 20260506170333 | 24 | 19 | 4.8 | 11.3 | 0.00 | 0.00 | 0.00 | 81 | 1011.0 |
| 20260506165832 | 25 | 282 | 3.2 | 11.3 | 0.00 | 0.00 | 0.00 | 82 | 1010.7 |
| 20260506165331 | 25 | 204 | 3.2 | 8.0 | 0.00 | 0.00 | 0.00 | 88 | 1010.3 |
| 20260506164832 | 25 | 131 | 3.2 | 8.0 | 0.00 | 0.00 | 0.00 | 88 | 1010.4 |
| 20260506163830 | 25 | 87 | 3.2 | 8.0 | 0.00 | 0.00 | 0.00 | 88 | 1010.5 |
| 20260506163331 | 25 | 108 | 1.6 | 3.2 | 0.00 | 0.00 | 0.00 | 89 | 1010.6 |
| 20260506162831 | 25 | 146 | 3.2 | 3.2 | 0.00 | 0.00 | 0.00 | 89 | 1010.7 |
| 20260506162331 | 25 | 57 | 3.2 | 4.8 | 0.00 | 0.00 | 0.00 | 90 | 1010.8 |
| 20260506161830 | 25 | 226 | 3.2 | 6.4 | 0.00 | 0.00 | 0.00 | 90 | 1010.9 |
| 20260506161330 | 25 | 119 | 3.2 | 6.4 | 0.00 | 0.00 | 0.00 | 90 | 1010.8 |
| 20260506155818 | 25 | 308 | 1.6 | 3.2 | 0.00 | 0.00 | 0.00 | 89 | 1010.5 |
| 20260506155318 | 25 | 40 | 1.6 | 4.8 | 0.00 | 0.00 | 0.00 | 89 | 1010.4 |
| 20260506154817 | 25 | 113 | 3.2 | 4.8 | 0.00 | 0.00 | 0.00 | 89 | 1010.2 |
| 20260506154317 | 25 | 112 | 1.6 | 4.8 | 0.00 | 0.00 | 0.00 | 90 | 1010.1 |
| 20260506151304 | 25 | 93 | 3.2 | 6.4 | 0.00 | 0.00 | 0.00 | 91 | 1009.7 |
| 20260506150747 | 25 | 53 | 3.2 | 4.8 | 0.00 | 0.00 | 0.00 | 91 | 1009.6 |
| 20260506150249 | 25 | 127 | 3.2 | 4.8 | 0.00 | 0.00 | 0.00 | 91 | 1009.7 |
| 20260506145749 | 25 | 138 | 3.2 | 4.8 | 0.00 | 0.00 | 0.00 | 91 | 1009.5 |
| 20260506145249 | 25 | 105 | 3.2 | 6.4 | 0.00 | 0.00 | 0.00 | 91 | 1009.6 |
| 20260506144748 | 25 | 82 | 3.2 | 6.4 | 0.00 | 0.00 | 0.00 | 91 | 1009.7 |
| 20260506143734 | 24 | 101 | 1.6 | 4.8 | 0.00 | 0.00 | 0.00 | 91 | 1009.8 |
| 20260506143233 | 24 | 99 | 1.6 | 4.8 | 0.00 | 0.00 | 0.00 | 91 | 1009.8 |
| 20260506142734 | 24 | 41 | 3.2 | 4.8 | 0.00 | 0.00 | 0.00 | 92 | 1009.8 |
| 20260506142233 | 24 | 81 | 3.2 | 6.4 | 0.00 | 0.00 | 0.00 | 92 | 1009.6 |
| 20260506141734 | 24 | 82 | 4.8 | 6.4 | 0.00 | 0.00 | 0.00 | 92 | 1009.5 |
| 20260506141234 | 24 | 130 | 4.8 | 6.4 | 0.00 | 0.00 | 0.00 | 92 | 1009.4 |
| 20260506140233 | 24 | 101 | 3.2 | 6.4 | 0.00 | 0.00 | 0.00 | 92 | 1009.1 |
| 20260506135734 | 24 | 128 | 3.2 | 4.8 | 0.00 | 0.00 | 0.00 | 93 | 1008.9 |
| 20260506135232 | 24 | 124 | 3.2 | 6.4 | 0.00 | 0.00 | 0.00 | 93 | 1008.9 |
| 20260506134232 | 23 | 116 | 3.2 | 4.8 | 0.00 | 0.00 | 0.00 | 94 | 1008.9 |
| 20260506133719 | 23 | 97 | 3.2 | 4.8 | 0.00 | 0.00 | 0.00 | 94 | 1008.9 |
| 20260506133219 | 23 | 117 | 3.2 | 4.8 | 0.00 | 0.00 | 0.00 | 94 | 1008.9 |
| 20260506132720 | 23 | 79 | 3.2 | 6.4 | 0.00 | 0.00 | 0.00 | 94 | 1008.9 |
| 20260506132219 | 23 | 136 | 3.2 | 6.4 | 0.00 | 0.00 | 0.00 | 94 | 1008.9 |
| 20260506131720 | 23 | 106 | 3.2 | 4.8 | 0.00 | 0.00 | 0.00 | 95 | 1009.0 |
| 20260506131220 | 23 | 94 | 3.2 | 4.8 | 0.00 | 0.00 | 0.00 | 95 | 1008.9 |
| 20260506130720 | 23 | 115 | 1.6 | 4.8 | 0.00 | 0.00 | 0.00 | 95 | 1009.1 |
| 20260506130219 | 23 | 0 | 1.6 | 3.2 | 0.00 | 0.00 | 0.00 | 95 | 1009.1 |
| 20260506125719 | 23 | 74 | 1.6 | 3.2 | 0.00 | 0.00 | 0.00 | 95 | 1009.1 |
| 20260506125220 | 23 | 103 | 0.0 | 1.6 | 0.00 | 0.00 | 0.00 | 95 | 1009.2 |
| 20260506124719 | 23 | 0 | 0.0 | 1.6 | 0.00 | 0.00 | 0.00 | 95 | 1009.2 |
| 20260506124220 | 23 | 106 | 0.0 | 1.6 | 0.00 | 0.00 | 0.00 | 95 | 1009.2 |
| 20260506123720 | 23 | 0 | 1.6 | 3.2 | 0.00 | 0.00 | 0.00 | 95 | 1009.2 |
| 20260506123220 | 23 | 79 | 0.0 | 3.2 | 0.00 | 0.00 | 0.00 | 95 | 1009.2 |
| 20260506122720 | 23 | 116 | 0.0 | 1.6 | 0.00 | 0.00 | 0.00 | 95 | 1009.1 |
| 20260506122205 | 23 | 112 | 0.0 | 1.6 | 0.00 | 0.00 | 0.00 | 95 | 1009.1 |
| 20260506121706 | 23 | 80 | 0.0 | 1.6 | 0.00 | 0.00 | 0.00 | 95 | 1009.0 |
| 20260506120650 | 23 | 118 | 1.6 | 3.2 | 0.00 | 0.00 | 0.00 | 95 | 1009.1 |
| 20260506120150 | 23 | 102 | 1.6 | 3.2 | 0.00 | 0.00 | 0.00 | 95 | 1009.1 |
| 20260506115650 | 23 | 81 | 1.6 | 3.2 | 0.00 | 0.00 | 0.00 | 95 | 1009.0 |
| 20260506115151 | 23 | 0 | 1.6 | 3.2 | 0.00 | 0.00 | 0.00 | 95 | 1008.9 |
| 20260506114635 | 23 | 166 | 1.6 | 3.2 | 0.00 | 0.00 | 0.00 | 94 | 1008.9 |
| 20260506114135 | 23 | 64 | 1.6 | 3.2 | 0.00 | 0.00 | 0.00 | 94 | 1008.9 |
| 20260506113636 | 23 | 98 | 1.6 | 3.2 | 0.00 | 0.00 | 0.00 | 94 | 1008.9 |
| 20260506112635 | 23 | 132 | 1.6 | 4.8 | 0.00 | 0.00 | 0.00 | 94 | 1008.8 |
| 20260506112135 | 23 | 132 | 1.6 | 4.8 | 0.00 | 0.00 | 0.00 | 94 | 1008.7 |
| 20260506111636 | 23 | 94 | 1.6 | 4.8 | 0.00 | 0.00 | 0.00 | 94 | 1008.5 |
| 20260506111136 | 23 | 115 | 1.6 | 4.8 | 0.00 | 0.00 | 0.00 | 94 | 1008.5 |
| 20260506110634 | 23 | 0 | 1.6 | 4.8 | 0.00 | 0.00 | 0.00 | 94 | 1008.5 |
| 20260506110135 | 23 | 272 | 3.2 | 4.8 | 0.00 | 0.00 | 0.00 | 94 | 1008.5 |
| 20260506104635 | 23 | 85 | 1.6 | 4.8 | 0.00 | 0.00 | 0.00 | 94 | 1008.4 |
| 20260506104134 | 23 | 73 | 1.6 | 3.2 | 0.00 | 0.00 | 0.00 | 94 | 1008.5 |
| 20260506103634 | 23 | 196 | 1.6 | 6.4 | 0.00 | 0.00 | 0.00 | 94 | 1008.5 |
| 20260506103135 | 23 | 123 | 1.6 | 6.4 | 0.00 | 0.00 | 0.00 | 94 | 1008.4 |
| 20260506102635 | 23 | 62 | 3.2 | 4.8 | 0.00 | 0.00 | 0.00 | 94 | 1008.4 |
| 20260506102134 | 23 | 137 | 1.6 | 4.8 | 0.00 | 0.00 | 0.00 | 94 | 1008.3 |
| 20260506101635 | 23 | 89 | 1.6 | 4.8 | 0.00 | 0.00 | 0.00 | 94 | 1008.2 |
| 20260506101126 | 23 | 327 | 3.2 | 8.0 | 0.00 | 0.00 | 0.00 | 94 | 1008.3 |
| 20260506100122 | 23 | 59 | 1.6 | 6.4 | 0.00 | 0.00 | 0.00 | 93 | 1008.1 |
| 20260506095624 | 23 | 90 | 3.2 | 12.9 | 0.00 | 0.00 | 0.00 | 93 | 1008.0 |
| 20260506095123 | 23 | 182 | 3.2 | 12.9 | 0.00 | 0.00 | 0.00 | 93 | 1007.9 |
| 20260506094624 | 23 | 34 | 3.2 | 6.4 | 0.00 | 0.00 | 0.00 | 93 | 1007.9 |
| 20260506094123 | 23 | 170 | 1.6 | 8.0 | 0.00 | 0.00 | 0.00 | 93 | 1007.8 |
| 20260506093623 | 23 | 81 | 1.6 | 8.0 | 0.00 | 0.00 | 0.00 | 93 | 1007.8 |
| 20260506092622 | 23 | 0 | 3.2 | 9.7 | 0.00 | 0.00 | 0.00 | 94 | 1007.8 |
| 20260506092124 | 23 | 169 | 3.2 | 6.4 | 0.00 | 0.00 | 0.00 | 93 | 1007.7 |
| 20260506091623 | 23 | 94 | 3.2 | 8.0 | 0.00 | 0.00 | 0.00 | 93 | 1007.8 |
| 20260506091123 | 23 | 155 | 3.2 | 8.0 | 0.00 | 0.00 | 0.00 | 93 | 1007.8 |
| 20260506090624 | 23 | 133 | 3.2 | 9.7 | 0.00 | 0.00 | 0.00 | 93 | 1007.8 |
| 20260506085623 | 23 | 1 | 3.2 | 11.3 | 0.00 | 0.00 | 0.00 | 93 | 1007.8 |
| 20260506085123 | 23 | 109 | 3.2 | 9.7 | 0.00 | 0.00 | 0.00 | 93 | 1007.7 |
| 20260506084624 | 23 | 177 | 3.2 | 6.4 | 0.00 | 0.00 | 0.00 | 93 | 1007.7 |
| 20260506083621 | 23 | 177 | 3.2 | 11.3 | 0.00 | 0.00 | 0.00 | 93 | 1007.8 |
| 20260506082120 | 23 | 192 | 3.2 | 9.7 | 0.00 | 0.00 | 0.00 | 93 | 1007.8 |
| 20260506081621 | 23 | 201 | 3.2 | 9.7 | 0.00 | 0.00 | 0.00 | 93 | 1007.8 |
| 20260506081120 | 23 | 188 | 3.2 | 8.0 | 0.00 | 0.00 | 0.00 | 93 | 1007.7 |
| 20260506080620 | 23 | 175 | 3.2 | 8.0 | 0.00 | 0.00 | 0.00 | 94 | 1007.7 |
| 20260506080121 | 23 | 179 | 3.2 | 9.7 | 0.00 | 0.00 | 0.00 | 94 | 1007.9 |
| 20260506073121 | 23 | 182 | 3.2 | 9.7 | 0.00 | 0.00 | 0.00 | 94 | 1008.1 |
| 20260506072622 | 23 | 95 | 4.8 | 12.9 | 0.00 | 0.00 | 0.00 | 94 | 1008.0 |
| 20260506072121 | 23 | 202 | 3.2 | 12.9 | 0.00 | 0.00 | 0.00 | 94 | 1008.1 |
| 20260506071618 | 23 | 98 | 3.2 | 9.7 | 0.00 | 0.00 | 0.00 | 94 | 1008.2 |
| 20260506071119 | 23 | 161 | 3.2 | 11.3 | 0.00 | 0.00 | 0.00 | 94 | 1008.2 |
| 20260506070618 | 23 | 86 | 3.2 | 11.3 | 0.00 | 0.00 | 0.00 | 94 | 1008.3 |
| 20260506070118 | 23 | 128 | 3.2 | 8.0 | 0.00 | 0.00 | 0.00 | 94 | 1008.2 |
| 20260506062119 | 23 | 237 | 3.2 | 11.3 | 0.00 | 0.00 | 0.00 | 94 | 1008.5 |
| 20260506060618 | 23 | 135 | 3.2 | 8.0 | 0.00 | 0.00 | 0.00 | 93 | 1008.5 |
| 20260506060116 | 23 | 130 | 3.2 | 8.0 | 0.00 | 0.00 | 0.00 | 93 | 1008.4 |
| 20260506051111 | 23 | 175 | 3.2 | 9.7 | 0.00 | 0.00 | 0.00 | 92 | 1008.3 |
| 20260506050611 | 23 | 81 | 4.8 | 9.7 | 0.00 | 0.00 | 0.00 | 92 | 1008.3 |
| 20260506045111 | 23 | 328 | 4.8 | 9.7 | 0.00 | 0.00 | 0.00 | 92 | 1008.3 |
| 20260506044611 | 23 | 139 | 4.8 | 11.3 | 0.00 | 0.00 | 0.00 | 92 | 1008.4 |
| 20260506044111 | 23 | 155 | 4.8 | 11.3 | 0.00 | 0.00 | 0.00 | 92 | 1008.4 |
| 20260506042608 | 23 | 193 | 4.8 | 11.3 | 0.00 | 0.00 | 0.00 | 91 | 1008.1 |
| 20260506042109 | 23 | 128 | 4.8 | 12.9 | 0.00 | 0.00 | 0.00 | 91 | 1008.2 |
| 20260506041608 | 23 | 208 | 4.8 | 12.9 | 0.00 | 0.00 | 0.00 | 91 | 1008.1 |
| 20260506041108 | 23 | 148 | 4.8 | 11.3 | 0.00 | 0.00 | 0.00 | 90 | 1008.2 |
| 20260506040608 | 24 | 110 | 4.8 | 11.3 | 0.00 | 0.00 | 0.00 | 90 | 1008.3 |
| 20260506035605 | 24 | 119 | 4.8 | 11.3 | 0.00 | 0.00 | 0.00 | 90 | 1008.0 |
| 20260506035106 | 24 | 157 | 4.8 | 9.7 | 0.00 | 0.00 | 0.00 | 90 | 1007.9 |
| 20260506034606 | 24 | 83 | 4.8 | 11.3 | 0.00 | 0.00 | 0.00 | 90 | 1007.8 |
| 20260506033106 | 24 | 230 | 4.8 | 12.9 | 0.00 | 0.00 | 0.00 | 89 | 1007.8 |
| 20260506032606 | 24 | 184 | 4.8 | 11.3 | 0.00 | 0.00 | 0.00 | 89 | 1007.7 |
| 20260506032106 | 24 | 128 | 4.8 | 11.3 | 0.00 | 0.00 | 0.00 | 89 | 1007.6 |
| 20260506031607 | 24 | 143 | 4.8 | 11.3 | 0.00 | 0.00 | 0.00 | 88 | 1007.5 |
| 20260506031106 | 24 | 134 | 4.8 | 11.3 | 0.00 | 0.00 | 0.00 | 88 | 1007.4 |
| 20260506030103 | 24 | 132 | 4.8 | 11.3 | 0.00 | 0.00 | 0.00 | 88 | 1007.2 |
| 20260506025603 | 24 | 165 | 4.8 | 11.3 | 0.00 | 0.00 | 0.00 | 88 | 1007.1 |
| 20260506025104 | 25 | 122 | 4.8 | 11.3 | 0.00 | 0.00 | 0.00 | 87 | 1007.2 |
| 20260506024600 | 25 | 119 | 4.8 | 11.3 | 0.00 | 0.00 | 0.00 | 87 | 1007.2 |
| 20260506024100 | 25 | 157 | 4.8 | 11.3 | 0.00 | 0.00 | 0.00 | 87 | 1007.1 |
| 20260506023601 | 25 | 154 | 4.8 | 11.3 | 0.00 | 0.00 | 0.00 | 87 | 1007.1 |
| 20260506022101 | 25 | 79 | 4.8 | 11.3 | 0.00 | 0.00 | 0.00 | 86 | 1006.9 |
| 20260506021600 | 25 | 175 | 4.8 | 12.9 | 0.00 | 0.00 | 0.00 | 86 | 1006.9 |
| 20260506021101 | 25 | 191 | 4.8 | 12.9 | 0.00 | 0.00 | 0.00 | 86 | 1007.0 |
| 20260506020601 | 25 | 126 | 3.2 | 8.0 | 0.00 | 0.00 | 0.00 | 86 | 1006.8 |
| 20260506020100 | 25 | 112 | 3.2 | 9.7 | 0.00 | 0.00 | 0.00 | 85 | 1006.7 |
| 20260506015601 | 25 | 176 | 4.8 | 9.7 | 0.00 | 0.00 | 0.00 | 85 | 1006.7 |
| 20260506014101 | 26 | 196 | 4.8 | 12.9 | 0.00 | 0.00 | 0.00 | 83 | 1006.6 |
| 20260506013601 | 26 | 190 | 4.8 | 9.7 | 0.00 | 0.00 | 0.00 | 83 | 1006.4 |
| 20260506013059 | 26 | 138 | 4.8 | 9.7 | 0.00 | 0.00 | 0.00 | 82 | 1006.5 |
| 20260506012558 | 26 | 112 | 3.2 | 9.7 | 0.00 | 0.00 | 0.00 | 83 | 1006.4 |
| 20260506012058 | 26 | 132 | 3.2 | 9.7 | 0.00 | 0.00 | 0.00 | 83 | 1006.5 |
| 20260506011556 | 26 | 62 | 3.2 | 9.7 | 0.00 | 0.00 | 0.00 | 83 | 1006.4 |
| 20260506010552 | 26 | 114 | 3.2 | 9.7 | 0.00 | 0.00 | 0.00 | 83 | 1006.1 |
| 20260506010053 | 26 | 120 | 3.2 | 8.0 | 0.00 | 0.00 | 0.00 | 83 | 1006.0 |
| 20260506005553 | 26 | 139 | 3.2 | 6.4 | 0.00 | 0.00 | 0.00 | 82 | 1006.0 |
| 20260506005052 | 26 | 146 | 3.2 | 6.4 | 0.00 | 0.00 | 0.00 | 82 | 1005.9 |
| 20260506004553 | 26 | 128 | 1.6 | 6.4 | 0.00 | 0.00 | 0.00 | 82 | 1005.8 |
| 20260506004053 | 26 | 96 | 3.2 | 9.7 | 0.00 | 0.00 | 0.00 | 82 | 1005.8 |
| 20260506003553 | 27 | 102 | 3.2 | 9.7 | 0.00 | 0.00 | 0.00 | 81 | 1005.7 |
| 20260506003053 | 27 | 92 | 3.2 | 6.4 | 0.00 | 0.00 | 0.00 | 81 | 1005.6 |
| 20260506002553 | 27 | 122 | 3.2 | 6.4 | 0.00 | 0.00 | 0.00 | 80 | 1005.6 |
| 20260506001052 | 27 | 127 | 3.2 | 12.9 | 0.00 | 0.00 | 0.00 | 79 | 1005.4 |
| 20260506000552 | 27 | 181 | 4.8 | 12.9 | 0.00 | 0.00 | 0.00 | 79 | 1005.4 |
| 20260506000051 | 27 | 128 | 4.8 | 12.9 | 0.00 | 0.00 | 0.00 | 78 | 1005.3 |
| 20260505235550 | 27 | 98 | 4.8 | 12.9 | 0.00 | 0.00 | 0.00 | 78 | 1005.2 |
| 20260505235050 | 27 | 99 | 4.8 | 9.7 | 0.00 | 0.00 | 0.00 | 77 | 1005.2 |
| 20260505234548 | 28 | 81 | 3.2 | 9.7 | 0.00 | 0.00 | 0.00 | 77 | 1005.2 |
| 20260505233047 | 28 | 129 | 4.8 | 9.7 | 0.00 | 0.00 | 0.00 | 76 | 1005.2 |
| 20260505232548 | 28 | 117 | 4.8 | 9.7 | 0.00 | 0.00 | 0.00 | 75 | 1005.2 |
| 20260505232047 | 28 | 110 | 4.8 | 12.9 | 0.00 | 0.00 | 0.00 | 75 | 1005.2 |
| 20260505231548 | 28 | 111 | 3.2 | 12.9 | 0.00 | 0.00 | 0.00 | 74 | 1005.1 |
| 20260505231047 | 28 | 167 | 3.2 | 11.3 | 0.00 | 0.00 | 0.00 | 74 | 1005.1 |
| 20260505230547 | 28 | 96 | 3.2 | 8.0 | 0.00 | 0.00 | 0.00 | 73 | 1005.0 |
| 20260505230048 | 28 | 196 | 4.8 | 9.7 | 0.00 | 0.00 | 0.00 | 73 | 1005.0 |
| 20260505225547 | 28 | 87 | 4.8 | 9.7 | 0.00 | 0.00 | 0.00 | 73 | 1005.1 |
| 20260505225047 | 28 | 159 | 4.8 | 11.3 | 0.00 | 0.00 | 0.00 | 72 | 1004.9 |
| 20260505224548 | 28 | 140 | 4.8 | 11.3 | 0.00 | 0.00 | 0.00 | 71 | 1004.9 |
| 20260505224047 | 28 | 113 | 3.2 | 11.3 | 0.00 | 0.00 | 0.00 | 72 | 1004.9 |
| 20260505223548 | 29 | 43 | 3.2 | 11.3 | 0.00 | 0.00 | 0.00 | 71 | 1005.0 |
| 20260505223045 | 29 | 330 | 3.2 | 8.0 | 0.00 | 0.00 | 0.00 | 71 | 1005.0 |
| 20260505222543 | 29 | 87 | 3.2 | 8.0 | 0.00 | 0.00 | 0.00 | 71 | 1005.0 |
| 20260505221544 | 29 | 264 | 3.2 | 9.7 | 0.00 | 0.00 | 0.00 | 70 | 1004.9 |
| 20260505221044 | 28 | 236 | 3.2 | 11.3 | 0.00 | 0.00 | 0.00 | 69 | 1005.1 |
| 20260505220543 | 28 | 172 | 4.8 | 11.3 | 0.00 | 0.00 | 0.00 | 69 | 1005.1 |
| 20260505220044 | 28 | 200 | 3.2 | 11.3 | 0.00 | 0.00 | 0.00 | 70 | 1005.3 |